createdAt,value
2022-10-06T00:01:45.931Z,100.00
2022-10-06T00:06:48.362Z,99.11
2022-10-06T00:11:50.759Z,100.00
2022-10-06T00:16:53.109Z,97.96
2022-10-06T00:21:55.476Z,98.47
2022-10-06T00:26:57.906Z,100.00
2022-10-06T00:32:00.232Z,95.03
2022-10-06T00:37:03.333Z,93.64
2022-10-06T00:42:06.000Z,96.24
2022-10-06T00:47:08.933Z,95.04
2022-10-06T00:52:15.090Z,94.49
2022-10-06T00:57:18.777Z,90.19
2022-10-06T01:02:23.796Z,88.66
2022-10-06T01:07:29.603Z,81.43
2022-10-06T01:12:33.751Z,86.23
2022-10-06T01:17:55.276Z,89.33
2022-10-06T01:23:05.742Z,86.06
2022-10-06T01:28:10.729Z,86.77
2022-10-06T01:33:13.303Z,90.39
2022-10-06T01:38:17.692Z,90.15
2022-10-06T01:43:22.641Z,89.31
2022-10-06T01:48:28.413Z,87.12
2022-10-06T01:53:33.750Z,87.61
2022-10-06T01:58:36.343Z,84.14
2022-10-06T02:03:40.077Z,83.17
2022-10-06T02:08:44.521Z,88.71
2022-10-06T02:13:47.957Z,84.53
2022-10-06T02:18:50.568Z,85.51
2022-10-06T02:23:54.986Z,89.52
2022-10-06T02:28:57.384Z,92.07
2022-10-06T02:34:00.453Z,96.04
2022-10-06T02:39:03.144Z,100.00
2022-10-06T02:44:06.076Z,97.18
2022-10-06T02:49:08.593Z,98.72
2022-10-06T02:54:12.467Z,100.00
2022-10-06T02:59:15.404Z,100.00
2022-10-06T03:04:19.294Z,100.00
2022-10-06T03:09:21.975Z,100.00
2022-10-06T03:14:25.212Z,94.46
2022-10-06T03:19:27.735Z,95.69
2022-10-06T03:24:30.499Z,95.61
2022-10-06T03:29:35.120Z,99.33
2022-10-06T03:34:38.728Z,100.00
2022-10-06T03:39:44.370Z,100.00
2022-10-06T03:44:47.619Z,100.00
2022-10-06T03:49:50.148Z,100.00
2022-10-06T03:54:52.705Z,100.00
2022-10-06T03:59:59.222Z,100.00
2022-10-06T04:05:01.787Z,100.00
2022-10-06T04:10:05.749Z,100.00
2022-10-06T04:15:08.791Z,100.00
2022-10-06T04:20:11.835Z,100.00
2022-10-06T04:25:14.355Z,100.00
2022-10-06T04:30:17.178Z,100.00
2022-10-06T04:35:20.537Z,100.00
2022-10-06T04:40:23.188Z,100.00
2022-10-06T04:45:26.129Z,100.00
2022-10-06T04:50:28.598Z,100.00
2022-10-06T04:55:43.492Z,100.00
2022-10-06T05:00:49.308Z,100.00
2022-10-06T05:05:52.660Z,100.00
2022-10-06T05:11:07.251Z,100.00
2022-10-06T05:16:13.530Z,100.00
2022-10-06T05:21:21.111Z,100.00
2022-10-06T05:26:27.042Z,100.00
2022-10-06T05:31:35.255Z,100.00
2022-10-06T05:36:40.319Z,100.00
2022-10-06T05:41:45.276Z,100.00
2022-10-06T05:46:49.293Z,100.00
2022-10-06T05:51:53.221Z,100.00
2022-10-06T05:57:02.148Z,100.00
2022-10-06T06:02:08.919Z,100.00
2022-10-06T06:07:17.710Z,100.00
2022-10-06T06:12:21.693Z,100.00
2022-10-06T06:17:30.711Z,100.00
2022-10-06T06:22:35.447Z,100.00
2022-10-06T06:27:42.155Z,100.00
2022-10-06T06:32:45.040Z,100.00
2022-10-06T06:37:48.871Z,100.00
2022-10-06T06:42:53.826Z,100.00
2022-10-06T06:48:16.668Z,100.00
2022-10-06T06:53:20.780Z,100.00
2022-10-06T06:58:23.775Z,100.00
2022-10-06T07:03:55.579Z,100.00
2022-10-06T07:08:51.237Z,100.00
2022-10-06T07:13:56.255Z,100.00
2022-10-06T07:19:21.307Z,100.00
2022-10-06T07:24:46.143Z,100.00
2022-10-06T07:29:54.472Z,97.07
2022-10-06T07:34:58.787Z,94.47
2022-10-06T07:40:03.867Z,89.28
2022-10-06T07:45:25.440Z,88.86
2022-10-06T07:50:29.105Z,86.66
2022-10-06T07:55:32.757Z,85.86
2022-10-06T08:00:53.149Z,87.37
2022-10-06T08:06:00.362Z,85.17
2022-10-06T08:11:04.533Z,81.42
2022-10-06T08:16:18.383Z,81.95
2022-10-06T08:21:34.649Z,81.42
2022-10-06T08:26:37.261Z,80.83
2022-10-06T08:31:39.662Z,82.81
2022-10-06T08:37:02.222Z,79.11
2022-10-06T08:42:09.442Z,77.43
2022-10-06T08:47:22.719Z,76.97
2022-10-06T08:53:06.661Z,77.25
2022-10-06T08:58:23.346Z,74.32
2022-10-06T09:03:31.487Z,78.11
2022-10-06T09:08:36.790Z,75.13
2022-10-06T09:13:46.000Z,74.92
2022-10-06T09:19:08.221Z,76.38
2022-10-06T09:24:25.470Z,75.21
2022-10-06T09:29:31.293Z,73.33
2022-10-06T09:34:45.687Z,71.00
2022-10-06T09:39:51.090Z,69.19
2022-10-06T09:45:10.936Z,70.59
2022-10-06T09:50:20.070Z,70.88
2022-10-06T09:55:29.063Z,67.54
2022-10-06T10:00:46.478Z,69.57
2022-10-06T10:05:51.730Z,73.97
2022-10-06T10:11:42.290Z,70.29
2022-10-06T10:16:49.665Z,70.93
2022-10-06T10:21:57.706Z,72.62
2022-10-06T10:27:09.257Z,72.17
2022-10-06T10:32:43.057Z,70.40
2022-10-06T10:38:24.781Z,70.35
2022-10-06T10:43:37.369Z,67.29
2022-10-06T10:48:54.776Z,66.90
2022-10-06T10:54:03.757Z,65.29
2022-10-06T10:59:36.078Z,65.16
2022-10-06T11:04:43.467Z,65.95
2022-10-06T11:10:00.913Z,59.98
2022-10-06T11:15:06.576Z,51.54
2022-10-06T11:20:21.465Z,56.39
2022-10-06T11:25:36.950Z,55.14
2022-10-06T11:30:50.735Z,56.46
2022-10-06T11:35:53.340Z,60.24
2022-10-06T11:41:32.040Z,63.57
2022-10-06T11:46:45.052Z,59.83
2022-10-06T11:51:47.835Z,60.49
2022-10-06T11:56:50.290Z,65.53
2022-10-06T12:01:54.847Z,65.59
2022-10-06T12:06:59.282Z,62.84
2022-10-06T12:12:15.011Z,62.08
2022-10-06T12:17:48.589Z,62.26
2022-10-06T12:22:59.921Z,66.15
2022-10-06T12:28:06.150Z,60.77
2022-10-06T12:33:20.713Z,62.23
2022-10-06T12:38:33.151Z,64.82
2022-10-06T12:44:05.537Z,63.12
2022-10-06T12:49:22.134Z,64.69
2022-10-06T12:54:42.597Z,70.48
2022-10-06T12:59:45.172Z,65.82
2022-10-06T13:05:00.281Z,64.77
2022-10-06T13:10:18.406Z,64.05
2022-10-06T13:20:58.737Z,64.57
2022-10-06T13:26:41.079Z,62.86
2022-10-06T13:31:51.901Z,63.22
2022-10-06T13:36:56.105Z,63.22
2022-10-06T13:42:10.516Z,72.28
2022-10-06T13:47:21.463Z,56.28
2022-10-06T13:52:29.004Z,49.47
2022-10-06T13:57:48.187Z,46.22
2022-10-06T14:02:55.214Z,43.46
2022-10-06T14:08:03.981Z,48.17
2022-10-06T14:13:29.281Z,53.16
2022-10-06T14:18:47.286Z,56.26
2022-10-06T14:23:56.196Z,61.92
2022-10-06T14:28:59.065Z,60.40
2022-10-06T14:34:02.708Z,62.97
2022-10-06T14:39:11.043Z,63.28
2022-10-06T14:44:15.664Z,62.99
2022-10-06T14:49:18.263Z,67.03
2022-10-06T14:54:21.722Z,63.81
2022-10-06T14:59:24.891Z,64.38
2022-10-06T15:04:28.330Z,64.04
2022-10-06T15:09:31.398Z,64.94
2022-10-06T15:14:39.419Z,65.59
2022-10-06T15:19:42.119Z,67.80
2022-10-06T15:24:48.783Z,66.87
2022-10-06T15:29:51.255Z,65.87
2022-10-06T15:34:55.226Z,66.39
2022-10-06T15:39:58.166Z,69.56
2022-10-06T15:45:05.127Z,67.96
2022-10-06T15:50:11.372Z,69.77
2022-10-06T15:55:15.436Z,68.58
2022-10-06T16:00:17.875Z,68.07
2022-10-06T16:05:49.473Z,67.63
2022-10-06T16:10:51.947Z,70.80
2022-10-06T16:15:56.229Z,69.69
2022-10-06T16:20:58.739Z,70.17
2022-10-06T16:26:04.810Z,70.56
2022-10-06T16:31:07.395Z,71.64
2022-10-06T16:36:10.887Z,72.48
2022-10-06T16:41:13.292Z,72.83
2022-10-06T16:46:19.238Z,73.09
2022-10-06T16:51:26.888Z,72.33
2022-10-06T16:56:53.826Z,74.48
2022-10-06T17:01:56.311Z,76.83
2022-10-06T17:06:58.720Z,77.44
2022-10-06T17:12:03.174Z,79.13
2022-10-06T17:17:05.862Z,82.02
2022-10-06T17:22:08.331Z,83.17
2022-10-06T17:27:10.671Z,84.04
2022-10-06T17:32:15.227Z,83.55
2022-10-06T17:37:17.672Z,82.99
2022-10-06T17:42:20.026Z,83.53
2022-10-06T17:47:22.415Z,81.15
2022-10-06T17:52:24.899Z,79.90
2022-10-06T17:57:30.454Z,81.64
2022-10-06T18:02:33.287Z,80.55
2022-10-06T18:07:38.118Z,78.99
2022-10-06T18:12:40.800Z,80.51
2022-10-06T18:17:43.360Z,79.95
2022-10-06T18:22:45.737Z,79.74
2022-10-06T18:27:48.110Z,80.98
2022-10-06T18:38:12.852Z,83.90
2022-10-06T18:43:15.242Z,82.35
2022-10-06T18:48:36.494Z,82.89
2022-10-06T18:53:39.126Z,82.50
2022-10-06T18:58:41.832Z,82.28
2022-10-06T19:03:44.256Z,85.49
2022-10-06T19:08:50.634Z,84.76
2022-10-06T19:13:53.907Z,83.98
2022-10-06T19:18:56.339Z,81.46
2022-10-06T19:24:01.782Z,83.05
2022-10-06T19:29:06.664Z,84.46
2022-10-06T19:34:11.880Z,84.64
2022-10-06T19:39:14.261Z,84.89
2022-10-06T19:44:17.149Z,84.96
2022-10-06T19:49:19.646Z,87.61
2022-10-06T19:54:22.549Z,87.53
2022-10-06T19:59:25.370Z,86.36
2022-10-06T20:04:27.804Z,85.94
2022-10-06T20:09:34.078Z,94.35
2022-10-06T20:14:36.824Z,85.47
2022-10-06T20:19:40.141Z,85.63
2022-10-06T20:24:42.561Z,86.55
2022-10-06T20:29:44.969Z,89.08
2022-10-06T20:34:47.341Z,93.35
2022-10-06T20:40:08.188Z,85.40
2022-10-06T20:45:12.144Z,86.51
2022-10-06T20:50:14.745Z,87.41
2022-10-06T20:55:17.365Z,84.04
2022-10-06T21:00:21.952Z,84.03
2022-10-06T21:05:24.305Z,89.16
2022-10-06T21:10:26.708Z,85.40
2022-10-06T21:15:29.112Z,88.18
2022-10-06T21:20:31.466Z,87.45
2022-10-06T21:25:37.910Z,85.16
2022-10-06T21:30:41.098Z,84.40
2022-10-06T21:35:43.451Z,83.78
2022-10-06T21:40:45.878Z,87.90
2022-10-06T21:45:57.027Z,89.56
2022-10-06T21:51:11.662Z,86.82
2022-10-06T21:56:14.109Z,92.25
2022-10-06T22:01:16.523Z,89.25
2022-10-06T22:06:20.109Z,89.22
2022-10-06T22:11:25.556Z,87.35
2022-10-06T22:16:32.555Z,87.51
2022-10-06T22:21:37.359Z,89.37
2022-10-06T22:26:41.870Z,89.53
2022-10-06T22:31:46.381Z,88.20
2022-10-06T22:36:48.829Z,88.29
2022-10-06T22:41:51.131Z,95.81
2022-10-06T22:46:53.607Z,91.42
2022-10-06T22:51:55.966Z,92.82
2022-10-06T22:56:58.421Z,94.04
2022-10-06T23:02:00.789Z,95.73
2022-10-06T23:07:03.240Z,91.64
2022-10-06T23:12:05.857Z,89.41
2022-10-06T23:17:08.221Z,87.52
2022-10-06T23:22:10.537Z,88.78
2022-10-06T23:27:14.316Z,91.74
2022-10-06T23:32:16.930Z,87.47
2022-10-06T23:37:19.377Z,85.43
2022-10-06T23:42:21.718Z,91.49
2022-10-06T23:47:24.146Z,87.87
2022-10-06T23:52:26.477Z,89.82
2022-10-06T23:57:28.795Z,89.40
